Madison Heights, VA (24572)

2:56 AM EST on January 28, 2015 (GMT -0500)
Concord Turnpike | Change Station
CLOSE
Current Station
Personal Weather Station
Location: Lynchburg, VA
Elevation: 515 ft
Nearby Weather Stations

Elev 515 ft 37.40 °N, 79.11 °W | Updated 3 minutes ago

Overcast
Overcast
28.8 °F
Feels Like 25 °F
N
3.7
Wind Variable Wind from North
Gusts 9.8 mph

Today
High -- | Low -- °F
--% Chance of Precip.
Yesterday
High -- | Low -- °F
Precip. -- in
7:23 AM 5:36 PM
Waxing Gibbous, 62% visible
Pressure 30.05 in
Visibility 10.0 miles
Clouds Overcast 6000 ft
Windchill 25 °F
Dew Point 12 °F
Humidity 48%
Rainfall 0.00 in
Snow Depth Not available.
UV 0 out of 12
Pollen .30 out of 12
Air Quality Not available.
Flu Activity Not available.
METAR KLYH 280654Z AUTO VRB06KT 10SM OVC060 M03/M11 A3003 RMK AO2 SLP175 T10331111

More Conditions Fewer Conditions

Pressure 30.05 in
Visibility 10.0 miles
Clouds Overcast 6000 ft
Windchill 25 °F
Dew Point 12 °F
Humidity 48%
Rainfall 0.00 in
Snow Depth Not available.
UV 0 out of 12
Pollen .30 out of 12
Air Quality Not available.
Flu Activity Not available.
METAR KLYH 280654Z AUTO VRB06KT 10SM OVC060 M03/M11 A3003 RMK AO2 SLP175 T10331111

More Conditions Fewer Conditions

10-Day Weather Forecast

Almanac

Astronomy

Jan. 28, 2015 Rise Set
Actual Time
Civil Twilight
Nautical Twilight
Astronomical Twilight
Moon
Length of Visible Light
Length of Day
Tomorrow will be .
, % of the Moon is Illuminated

Today's Extremes

State Highs State Lows

Community

WunderPhotos

Upload Photos

1,791,117 photos uploaded!

WunderBlogs® & News

Nearby

Air Quality

  Air Quality AQ Index Pollutant
Not available.

Snow Depth

Station Depth Elevation

Earthquake Activity

City Distance Mag. Time & Date
Minimum magnitude displayed is 2.5.

Coastal Water Temperatures

Place Temperature

Nearby Weather Stations